sensor_id;sensor_type;location;lat;lon;timestamp;P1;durP1;ratioP1;P2;durP2;ratioP2
20527;SDS011;23612;50.894;10.700;2023-12-14T00:00:17;6.40;;;3.53;;
20527;SDS011;23612;50.894;10.700;2023-12-14T00:02:43;5.88;;;3.80;;
20527;SDS011;23612;50.894;10.700;2023-12-14T00:05:08;6.43;;;3.83;;
20527;SDS011;23612;50.894;10.700;2023-12-14T00:07:34;6.38;;;3.35;;
20527;SDS011;23612;50.894;10.700;2023-12-14T00:09:59;6.15;;;4.30;;
20527;SDS011;23612;50.894;10.700;2023-12-14T00:12:25;4.45;;;3.50;;
20527;SDS011;23612;50.894;10.700;2023-12-14T00:14:50;10.27;;;4.30;;
20527;SDS011;23612;50.894;10.700;2023-12-14T00:17:16;5.40;;;3.70;;
20527;SDS011;23612;50.894;10.700;2023-12-14T00:19:41;6.40;;;3.60;;
20527;SDS011;23612;50.894;10.700;2023-12-14T00:22:07;4.63;;;3.28;;
20527;SDS011;23612;50.894;10.700;2023-12-14T00:24:33;3.63;;;2.88;;
20527;SDS011;23612;50.894;10.700;2023-12-14T00:26:58;4.05;;;2.70;;
20527;SDS011;23612;50.894;10.700;2023-12-14T00:29:23;4.38;;;3.30;;
20527;SDS011;23612;50.894;10.700;2023-12-14T00:31:49;4.15;;;2.58;;
20527;SDS011;23612;50.894;10.700;2023-12-14T00:34:14;3.83;;;2.65;;
20527;SDS011;23612;50.894;10.700;2023-12-14T00:36:40;2.58;;;2.25;;
20527;SDS011;23612;50.894;10.700;2023-12-14T00:39:05;3.83;;;2.40;;
20527;SDS011;23612;50.894;10.700;2023-12-14T00:41:31;4.22;;;2.15;;
20527;SDS011;23612;50.894;10.700;2023-12-14T00:43:56;5.18;;;2.40;;
20527;SDS011;23612;50.894;10.700;2023-12-14T00:46:22;4.03;;;2.40;;
20527;SDS011;23612;50.894;10.700;2023-12-14T00:48:47;3.95;;;2.67;;
20527;SDS011;23612;50.894;10.700;2023-12-14T00:51:13;6.95;;;2.80;;
20527;SDS011;23612;50.894;10.700;2023-12-14T00:53:38;2.47;;;2.22;;
20527;SDS011;23612;50.894;10.700;2023-12-14T00:56:04;4.00;;;2.55;;
20527;SDS011;23612;50.894;10.700;2023-12-14T00:58:29;4.35;;;2.75;;
20527;SDS011;23612;50.894;10.700;2023-12-14T01:00:55;4.55;;;2.75;;
20527;SDS011;23612;50.894;10.700;2023-12-14T01:03:20;5.47;;;2.70;;
20527;SDS011;23612;50.894;10.700;2023-12-14T01:05:46;5.20;;;2.53;;
20527;SDS011;23612;50.894;10.700;2023-12-14T01:08:11;4.60;;;2.70;;
20527;SDS011;23612;50.894;10.700;2023-12-14T01:10:37;4.32;;;2.85;;
20527;SDS011;23612;50.894;10.700;2023-12-14T01:13:02;3.28;;;2.65;;
20527;SDS011;23612;50.894;10.700;2023-12-14T01:15:28;3.50;;;2.50;;
20527;SDS011;23612;50.894;10.700;2023-12-14T01:17:53;2.85;;;2.35;;
20527;SDS011;23612;50.894;10.700;2023-12-14T01:20:19;4.00;;;2.22;;
20527;SDS011;23612;50.894;10.700;2023-12-14T01:22:44;5.10;;;2.85;;
20527;SDS011;23612;50.894;10.700;2023-12-14T01:25:10;5.32;;;2.83;;
20527;SDS011;23612;50.894;10.700;2023-12-14T01:27:35;4.10;;;2.42;;
20527;SDS011;23612;50.894;10.700;2023-12-14T01:30:01;4.20;;;2.28;;
20527;SDS011;23612;50.894;10.700;2023-12-14T01:32:26;2.97;;;2.20;;
20527;SDS011;23612;50.894;10.700;2023-12-14T01:34:52;3.08;;;2.00;;
20527;SDS011;23612;50.894;10.700;2023-12-14T01:37:17;4.85;;;2.17;;
20527;SDS011;23612;50.894;10.700;2023-12-14T01:39:43;2.65;;;2.20;;
20527;SDS011;23612;50.894;10.700;2023-12-14T01:42:08;4.90;;;2.42;;
20527;SDS011;23612;50.894;10.700;2023-12-14T01:44:33;3.00;;;2.10;;
20527;SDS011;23612;50.894;10.700;2023-12-14T01:46:59;3.67;;;2.13;;
20527;SDS011;23612;50.894;10.700;2023-12-14T01:49:24;3.28;;;2.15;;
20527;SDS011;23612;50.894;10.700;2023-12-14T01:51:50;3.38;;;2.03;;
20527;SDS011;23612;50.894;10.700;2023-12-14T01:54:15;3.40;;;2.10;;
20527;SDS011;23612;50.894;10.700;2023-12-14T01:56:41;2.40;;;2.20;;
20527;SDS011;23612;50.894;10.700;2023-12-14T01:59:06;4.63;;;2.22;;
20527;SDS011;23612;50.894;10.700;2023-12-14T02:01:44;3.85;;;2.20;;
20527;SDS011;23612;50.894;10.700;2023-12-14T02:04:11;4.38;;;2.20;;
20527;SDS011;23612;50.894;10.700;2023-12-14T02:06:38;4.70;;;1.88;;
20527;SDS011;23612;50.894;10.700;2023-12-14T02:09:04;2.58;;;2.13;;
20527;SDS011;23612;50.894;10.700;2023-12-14T02:11:30;4.55;;;2.10;;
20527;SDS011;23612;50.894;10.700;2023-12-14T02:13:55;2.95;;;1.88;;
20527;SDS011;23612;50.894;10.700;2023-12-14T02:16:21;4.28;;;1.80;;
20527;SDS011;23612;50.894;10.700;2023-12-14T02:18:46;2.13;;;1.52;;
20527;SDS011;23612;50.894;10.700;2023-12-14T02:21:12;4.10;;;2.05;;
20527;SDS011;23612;50.894;10.700;2023-12-14T02:23:43;2.17;;;1.90;;
20527;SDS011;23612;50.894;10.700;2023-12-14T02:26:10;4.68;;;2.42;;
20527;SDS011;23612;50.894;10.700;2023-12-14T02:28:36;6.07;;;2.10;;
20527;SDS011;23612;50.894;10.700;2023-12-14T02:31:01;2.17;;;1.75;;
20527;SDS011;23612;50.894;10.700;2023-12-14T02:33:27;2.10;;;1.90;;
20527;SDS011;23612;50.894;10.700;2023-12-14T02:35:52;4.10;;;2.05;;
20527;SDS011;23612;50.894;10.700;2023-12-14T02:38:18;3.45;;;2.42;;
20527;SDS011;23612;50.894;10.700;2023-12-14T02:40:43;2.05;;;1.90;;
20527;SDS011;23612;50.894;10.700;2023-12-14T02:43:09;3.53;;;2.22;;
20527;SDS011;23612;50.894;10.700;2023-12-14T02:45:34;2.35;;;2.15;;
20527;SDS011;23612;50.894;10.700;2023-12-14T02:48:00;2.72;;;2.20;;
20527;SDS011;23612;50.894;10.700;2023-12-14T02:50:25;2.15;;;2.00;;
20527;SDS011;23612;50.894;10.700;2023-12-14T02:52:51;3.22;;;2.08;;
20527;SDS011;23612;50.894;10.700;2023-12-14T02:55:16;2.42;;;1.90;;
20527;SDS011;23612;50.894;10.700;2023-12-14T02:57:42;2.28;;;2.08;;
20527;SDS011;23612;50.894;10.700;2023-12-14T03:00:07;2.78;;;2.30;;
20527;SDS011;23612;50.894;10.700;2023-12-14T03:02:33;2.28;;;1.85;;
20527;SDS011;23612;50.894;10.700;2023-12-14T03:04:59;3.35;;;2.58;;
20527;SDS011;23612;50.894;10.700;2023-12-14T03:07:24;3.08;;;2.13;;
20527;SDS011;23612;50.894;10.700;2023-12-14T03:09:50;4.43;;;2.60;;
20527;SDS011;23612;50.894;10.700;2023-12-14T03:12:15;4.43;;;2.58;;
20527;SDS011;23612;50.894;10.700;2023-12-14T03:14:41;2.88;;;2.55;;
20527;SDS011;23612;50.894;10.700;2023-12-14T03:17:07;10.45;;;3.47;;
20527;SDS011;23612;50.894;10.700;2023-12-14T03:19:37;5.60;;;4.30;;
20527;SDS011;23612;50.894;10.700;2023-12-14T03:22:04;6.35;;;4.45;;
20527;SDS011;23612;50.894;10.700;2023-12-14T03:24:29;9.02;;;5.53;;
20527;SDS011;23612;50.894;10.700;2023-12-14T03:26:55;12.18;;;5.82;;
20527;SDS011;23612;50.894;10.700;2023-12-14T03:29:20;9.45;;;6.43;;
20527;SDS011;23612;50.894;10.700;2023-12-14T03:31:46;11.80;;;6.53;;
20527;SDS011;23612;50.894;10.700;2023-12-14T03:34:12;14.43;;;8.35;;
20527;SDS011;23612;50.894;10.700;2023-12-14T03:36:38;14.05;;;8.35;;
20527;SDS011;23612;50.894;10.700;2023-12-14T03:39:04;16.08;;;8.95;;
20527;SDS011;23612;50.894;10.700;2023-12-14T03:41:29;15.93;;;8.75;;
20527;SDS011;23612;50.894;10.700;2023-12-14T03:43:55;18.80;;;9.13;;
20527;SDS011;23612;50.894;10.700;2023-12-14T03:46:20;17.48;;;9.82;;
20527;SDS011;23612;50.894;10.700;2023-12-14T03:48:46;18.65;;;9.88;;
20527;SDS011;23612;50.894;10.700;2023-12-14T03:51:11;18.55;;;10.52;;
20527;SDS011;23612;50.894;10.700;2023-12-14T03:53:37;15.50;;;9.70;;
20527;SDS011;23612;50.894;10.700;2023-12-14T03:56:02;18.92;;;10.82;;
20527;SDS011;23612;50.894;10.700;2023-12-14T03:58:28;18.73;;;10.63;;
20527;SDS011;23612;50.894;10.700;2023-12-14T04:00:54;20.77;;;11.57;;
20527;SDS011;23612;50.894;10.700;2023-12-14T04:03:19;17.95;;;11.30;;
20527;SDS011;23612;50.894;10.700;2023-12-14T04:05:44;20.95;;;11.88;;
20527;SDS011;23612;50.894;10.700;2023-12-14T04:08:10;22.38;;;11.60;;
20527;SDS011;23612;50.894;10.700;2023-12-14T04:10:35;23.58;;;12.43;;
20527;SDS011;23612;50.894;10.700;2023-12-14T04:13:01;28.17;;;13.82;;
20527;SDS011;23612;50.894;10.700;2023-12-14T04:15:27;25.15;;;12.10;;
20527;SDS011;23612;50.894;10.700;2023-12-14T04:17:52;25.90;;;12.55;;
20527;SDS011;23612;50.894;10.700;2023-12-14T04:20:18;24.02;;;12.80;;
20527;SDS011;23612;50.894;10.700;2023-12-14T04:22:43;23.40;;;13.15;;
20527;SDS011;23612;50.894;10.700;2023-12-14T04:25:10;20.02;;;12.57;;
20527;SDS011;23612;50.894;10.700;2023-12-14T04:27:35;22.85;;;13.13;;
20527;SDS011;23612;50.894;10.700;2023-12-14T04:30:01;25.27;;;13.52;;
20527;SDS011;23612;50.894;10.700;2023-12-14T04:32:26;25.20;;;14.25;;
20527;SDS011;23612;50.894;10.700;2023-12-14T04:34:52;21.20;;;12.98;;
20527;SDS011;23612;50.894;10.700;2023-12-14T04:37:18;22.48;;;13.32;;
20527;SDS011;23612;50.894;10.700;2023-12-14T04:39:43;21.85;;;12.55;;
20527;SDS011;23612;50.894;10.700;2023-12-14T04:42:09;22.75;;;13.25;;
20527;SDS011;23612;50.894;10.700;2023-12-14T04:44:34;22.58;;;12.43;;
20527;SDS011;23612;50.894;10.700;2023-12-14T04:47:00;23.67;;;12.88;;
20527;SDS011;23612;50.894;10.700;2023-12-14T04:49:25;23.52;;;12.50;;
20527;SDS011;23612;50.894;10.700;2023-12-14T04:51:51;24.02;;;12.50;;
20527;SDS011;23612;50.894;10.700;2023-12-14T04:54:16;23.83;;;13.02;;
20527;SDS011;23612;50.894;10.700;2023-12-14T04:56:44;28.55;;;13.45;;
20527;SDS011;23612;50.894;10.700;2023-12-14T04:59:10;23.35;;;12.88;;
20527;SDS011;23612;50.894;10.700;2023-12-14T05:01:36;25.38;;;14.23;;
20527;SDS011;23612;50.894;10.700;2023-12-14T05:04:01;23.88;;;13.40;;
20527;SDS011;23612;50.894;10.700;2023-12-14T05:06:27;25.05;;;14.50;;
20527;SDS011;23612;50.894;10.700;2023-12-14T05:08:54;21.48;;;13.50;;
20527;SDS011;23612;50.894;10.700;2023-12-14T05:11:19;25.10;;;14.25;;
20527;SDS011;23612;50.894;10.700;2023-12-14T05:13:45;25.50;;;13.65;;
20527;SDS011;23612;50.894;10.700;2023-12-14T05:16:14;26.27;;;13.55;;
20527;SDS011;23612;50.894;10.700;2023-12-14T05:18:39;27.00;;;13.57;;
20527;SDS011;23612;50.894;10.700;2023-12-14T05:21:05;27.70;;;14.40;;
20527;SDS011;23612;50.894;10.700;2023-12-14T05:23:31;28.58;;;14.95;;
20527;SDS011;23612;50.894;10.700;2023-12-14T05:25:56;27.75;;;14.50;;
20527;SDS011;23612;50.894;10.700;2023-12-14T05:28:22;27.83;;;14.77;;
20527;SDS011;23612;50.894;10.700;2023-12-14T05:30:47;28.58;;;16.25;;
20527;SDS011;23612;50.894;10.700;2023-12-14T05:33:13;28.05;;;14.43;;
20527;SDS011;23612;50.894;10.700;2023-12-14T05:35:38;27.25;;;14.95;;
20527;SDS011;23612;50.894;10.700;2023-12-14T05:38:04;27.58;;;14.75;;
20527;SDS011;23612;50.894;10.700;2023-12-14T05:40:30;24.85;;;14.65;;
20527;SDS011;23612;50.894;10.700;2023-12-14T05:42:56;24.95;;;14.25;;
20527;SDS011;23612;50.894;10.700;2023-12-14T05:45:22;26.60;;;14.75;;
20527;SDS011;23612;50.894;10.700;2023-12-14T05:47:47;26.95;;;16.48;;
20527;SDS011;23612;50.894;10.700;2023-12-14T05:50:13;28.73;;;15.55;;
20527;SDS011;23612;50.894;10.700;2023-12-14T05:52:38;26.70;;;14.13;;
20527;SDS011;23612;50.894;10.700;2023-12-14T05:55:07;24.15;;;14.32;;
20527;SDS011;23612;50.894;10.700;2023-12-14T05:57:35;22.70;;;13.57;;
20527;SDS011;23612;50.894;10.700;2023-12-14T06:00:00;21.52;;;12.85;;
20527;SDS011;23612;50.894;10.700;2023-12-14T06:02:26;22.92;;;13.30;;
20527;SDS011;23612;50.894;10.700;2023-12-14T06:04:51;23.83;;;14.05;;
20527;SDS011;23612;50.894;10.700;2023-12-14T06:07:17;24.63;;;14.25;;
20527;SDS011;23612;50.894;10.700;2023-12-14T06:09:42;27.95;;;14.32;;
20527;SDS011;23612;50.894;10.700;2023-12-14T06:12:08;25.95;;;13.90;;
20527;SDS011;23612;50.894;10.700;2023-12-14T06:14:34;25.73;;;14.48;;
20527;SDS011;23612;50.894;10.700;2023-12-14T06:17:00;28.15;;;14.63;;
20527;SDS011;23612;50.894;10.700;2023-12-14T06:19:25;29.35;;;15.13;;
20527;SDS011;23612;50.894;10.700;2023-12-14T06:21:51;29.27;;;14.68;;
20527;SDS011;23612;50.894;10.700;2023-12-14T06:24:17;28.65;;;15.93;;
20527;SDS011;23612;50.894;10.700;2023-12-14T06:26:45;30.10;;;15.70;;
20527;SDS011;23612;50.894;10.700;2023-12-14T06:29:11;30.42;;;16.50;;
20527;SDS011;23612;50.894;10.700;2023-12-14T06:31:37;30.85;;;17.33;;
20527;SDS011;23612;50.894;10.700;2023-12-14T06:34:03;34.97;;;19.70;;
20527;SDS011;23612;50.894;10.700;2023-12-14T06:36:30;38.08;;;19.30;;
20527;SDS011;23612;50.894;10.700;2023-12-14T06:38:56;35.42;;;18.60;;
20527;SDS011;23612;50.894;10.700;2023-12-14T06:41:24;32.28;;;18.80;;
20527;SDS011;23612;50.894;10.700;2023-12-14T06:43:50;26.98;;;15.57;;
20527;SDS011;23612;50.894;10.700;2023-12-14T06:46:16;28.48;;;14.52;;
20527;SDS011;23612;50.894;10.700;2023-12-14T06:48:42;22.65;;;13.40;;
20527;SDS011;23612;50.894;10.700;2023-12-14T06:51:08;23.63;;;13.57;;
20527;SDS011;23612;50.894;10.700;2023-12-14T06:53:34;25.30;;;13.45;;
20527;SDS011;23612;50.894;10.700;2023-12-14T06:56:00;21.52;;;13.00;;
20527;SDS011;23612;50.894;10.700;2023-12-14T06:58:25;20.90;;;11.82;;
20527;SDS011;23612;50.894;10.700;2023-12-14T07:00:51;21.00;;;12.30;;
20527;SDS011;23612;50.894;10.700;2023-12-14T07:03:16;20.17;;;11.70;;
20527;SDS011;23612;50.894;10.700;2023-12-14T07:05:42;20.48;;;12.60;;
20527;SDS011;23612;50.894;10.700;2023-12-14T07:08:07;23.23;;;12.40;;
20527;SDS011;23612;50.894;10.700;2023-12-14T07:10:33;20.30;;;13.13;;
20527;SDS011;23612;50.894;10.700;2023-12-14T07:12:59;26.55;;;13.07;;
20527;SDS011;23612;50.894;10.700;2023-12-14T07:15:24;20.88;;;13.02;;
20527;SDS011;23612;50.894;10.700;2023-12-14T07:17:50;15.95;;;11.40;;
20527;SDS011;23612;50.894;10.700;2023-12-14T07:20:16;13.80;;;9.63;;
20527;SDS011;23612;50.894;10.700;2023-12-14T07:22:41;14.38;;;10.43;;
20527;SDS011;23612;50.894;10.700;2023-12-14T07:25:07;17.83;;;10.52;;
20527;SDS011;23612;50.894;10.700;2023-12-14T07:27:33;17.15;;;11.98;;
20527;SDS011;23612;50.894;10.700;2023-12-14T07:29:59;18.45;;;11.82;;
20527;SDS011;23612;50.894;10.700;2023-12-14T07:32:25;28.73;;;16.75;;
20527;SDS011;23612;50.894;10.700;2023-12-14T07:34:50;31.77;;;21.20;;
20527;SDS011;23612;50.894;10.700;2023-12-14T07:37:16;22.58;;;15.38;;
20527;SDS011;23612;50.894;10.700;2023-12-14T07:39:41;23.80;;;15.27;;
20527;SDS011;23612;50.894;10.700;2023-12-14T07:42:06;39.58;;;18.50;;
20527;SDS011;23612;50.894;10.700;2023-12-14T07:44:32;37.60;;;16.02;;
20527;SDS011;23612;50.894;10.700;2023-12-14T07:46:59;41.67;;;19.23;;
20527;SDS011;23612;50.894;10.700;2023-12-14T07:49:25;28.00;;;13.95;;
20527;SDS011;23612;50.894;10.700;2023-12-14T07:51:51;55.70;;;21.05;;
20527;SDS011;23612;50.894;10.700;2023-12-14T07:54:16;53.13;;;17.98;;
20527;SDS011;23612;50.894;10.700;2023-12-14T07:56:43;52.80;;;17.58;;
20527;SDS011;23612;50.894;10.700;2023-12-14T07:59:09;42.08;;;16.08;;
20527;SDS011;23612;50.894;10.700;2023-12-14T08:01:34;37.58;;;14.40;;
20527;SDS011;23612;50.894;10.700;2023-12-14T08:04:00;38.78;;;13.38;;
20527;SDS011;23612;50.894;10.700;2023-12-14T08:06:26;33.70;;;14.00;;
20527;SDS011;23612;50.894;10.700;2023-12-14T08:08:52;19.95;;;9.77;;
20527;SDS011;23612;50.894;10.700;2023-12-14T08:11:17;20.00;;;9.15;;
20527;SDS011;23612;50.894;10.700;2023-12-14T08:13:43;28.45;;;12.63;;
20527;SDS011;23612;50.894;10.700;2023-12-14T08:16:08;18.17;;;9.02;;
20527;SDS011;23612;50.894;10.700;2023-12-14T08:18:36;19.42;;;10.05;;
20527;SDS011;23612;50.894;10.700;2023-12-14T08:21:01;17.02;;;9.20;;
20527;SDS011;23612;50.894;10.700;2023-12-14T08:23:27;23.20;;;11.57;;
20527;SDS011;23612;50.894;10.700;2023-12-14T08:25:55;19.25;;;10.00;;
20527;SDS011;23612;50.894;10.700;2023-12-14T08:28:23;27.90;;;12.68;;
20527;SDS011;23612;50.894;10.700;2023-12-14T08:30:50;37.17;;;15.95;;
20527;SDS011;23612;50.894;10.700;2023-12-14T08:33:16;36.65;;;15.23;;
20527;SDS011;23612;50.894;10.700;2023-12-14T08:35:41;38.92;;;16.23;;
20527;SDS011;23612;50.894;10.700;2023-12-14T08:38:06;31.60;;;13.68;;
20527;SDS011;23612;50.894;10.700;2023-12-14T08:40:32;20.65;;;10.63;;
20527;SDS011;23612;50.894;10.700;2023-12-14T08:42:57;21.42;;;11.13;;
20527;SDS011;23612;50.894;10.700;2023-12-14T08:45:23;20.17;;;10.07;;
20527;SDS011;23612;50.894;10.700;2023-12-14T08:47:49;18.08;;;8.55;;
20527;SDS011;23612;50.894;10.700;2023-12-14T08:50:14;11.93;;;7.47;;
20527;SDS011;23612;50.894;10.700;2023-12-14T08:52:40;16.25;;;7.63;;
20527;SDS011;23612;50.894;10.700;2023-12-14T08:55:06;8.90;;;5.68;;
20527;SDS011;23612;50.894;10.700;2023-12-14T08:57:33;11.48;;;6.68;;
20527;SDS011;23612;50.894;10.700;2023-12-14T08:59:59;11.13;;;6.40;;
20527;SDS011;23612;50.894;10.700;2023-12-14T09:02:24;11.88;;;6.50;;
20527;SDS011;23612;50.894;10.700;2023-12-14T09:04:50;10.48;;;7.25;;
20527;SDS011;23612;50.894;10.700;2023-12-14T09:07:16;11.65;;;6.65;;
20527;SDS011;23612;50.894;10.700;2023-12-14T09:09:42;8.18;;;5.57;;
20527;SDS011;23612;50.894;10.700;2023-12-14T09:12:07;6.50;;;5.40;;
20527;SDS011;23612;50.894;10.700;2023-12-14T09:14:33;10.85;;;6.20;;
20527;SDS011;23612;50.894;10.700;2023-12-14T09:16:58;8.02;;;6.13;;
20527;SDS011;23612;50.894;10.700;2023-12-14T09:19:24;11.55;;;5.80;;
20527;SDS011;23612;50.894;10.700;2023-12-14T09:21:49;8.32;;;6.63;;
20527;SDS011;23612;50.894;10.700;2023-12-14T09:24:15;9.23;;;6.47;;
20527;SDS011;23612;50.894;10.700;2023-12-14T09:26:40;8.35;;;6.07;;
20527;SDS011;23612;50.894;10.700;2023-12-14T09:29:06;11.95;;;6.68;;
20527;SDS011;23612;50.894;10.700;2023-12-14T09:31:32;9.15;;;6.63;;
20527;SDS011;23612;50.894;10.700;2023-12-14T09:33:57;8.43;;;5.95;;
20527;SDS011;23612;50.894;10.700;2023-12-14T09:36:22;8.85;;;6.78;;
20527;SDS011;23612;50.894;10.700;2023-12-14T09:38:49;12.00;;;7.80;;
20527;SDS011;23612;50.894;10.700;2023-12-14T09:41:14;12.43;;;8.07;;
20527;SDS011;23612;50.894;10.700;2023-12-14T09:43:39;10.85;;;6.85;;
20527;SDS011;23612;50.894;10.700;2023-12-14T09:46:05;8.68;;;6.15;;
20527;SDS011;23612;50.894;10.700;2023-12-14T09:48:32;10.77;;;6.53;;
20527;SDS011;23612;50.894;10.700;2023-12-14T09:50:58;10.38;;;6.00;;
20527;SDS011;23612;50.894;10.700;2023-12-14T09:53:24;8.45;;;5.85;;
20527;SDS011;23612;50.894;10.700;2023-12-14T09:55:49;7.32;;;5.45;;
20527;SDS011;23612;50.894;10.700;2023-12-14T09:58:15;7.57;;;5.63;;
20527;SDS011;23612;50.894;10.700;2023-12-14T10:00:40;7.05;;;5.63;;
20527;SDS011;23612;50.894;10.700;2023-12-14T10:03:23;7.47;;;5.30;;
20527;SDS011;23612;50.894;10.700;2023-12-14T10:05:51;7.85;;;5.38;;
20527;SDS011;23612;50.894;10.700;2023-12-14T10:08:17;8.07;;;4.85;;
20527;SDS011;23612;50.894;10.700;2023-12-14T10:10:44;6.00;;;5.10;;
20527;SDS011;23612;50.894;10.700;2023-12-14T10:13:11;8.68;;;6.22;;
20527;SDS011;23612;50.894;10.700;2023-12-14T10:15:44;7.32;;;5.10;;
20527;SDS011;23612;50.894;10.700;2023-12-14T10:18:11;6.20;;;4.97;;
20527;SDS011;23612;50.894;10.700;2023-12-14T10:20:37;5.10;;;4.53;;
20527;SDS011;23612;50.894;10.700;2023-12-14T10:23:03;4.85;;;4.28;;
20527;SDS011;23612;50.894;10.700;2023-12-14T10:25:30;5.35;;;4.82;;
20527;SDS011;23612;50.894;10.700;2023-12-14T10:27:56;6.20;;;4.93;;
20527;SDS011;23612;50.894;10.700;2023-12-14T10:30:22;7.18;;;5.22;;
20527;SDS011;23612;50.894;10.700;2023-12-14T10:32:48;8.50;;;5.00;;
20527;SDS011;23612;50.894;10.700;2023-12-14T10:35:14;5.75;;;4.68;;
20527;SDS011;23612;50.894;10.700;2023-12-14T10:37:44;7.80;;;5.60;;
20527;SDS011;23612;50.894;10.700;2023-12-14T10:40:14;31.58;;;12.05;;
20527;SDS011;23612;50.894;10.700;2023-12-14T10:42:43;56.63;;;17.63;;
20527;SDS011;23612;50.894;10.700;2023-12-14T10:45:11;17.73;;;7.90;;
20527;SDS011;23612;50.894;10.700;2023-12-14T10:47:39;6.97;;;5.38;;
20527;SDS011;23612;50.894;10.700;2023-12-14T10:50:08;9.68;;;6.53;;
20527;SDS011;23612;50.894;10.700;2023-12-14T10:52:36;12.90;;;7.18;;
20527;SDS011;23612;50.894;10.700;2023-12-14T10:55:07;7.20;;;5.35;;
20527;SDS011;23612;50.894;10.700;2023-12-14T10:57:40;8.90;;;4.88;;
20527;SDS011;23612;50.894;10.700;2023-12-14T11:00:05;16.70;;;9.15;;
20527;SDS011;23612;50.894;10.700;2023-12-14T11:02:41;12.02;;;7.47;;
20527;SDS011;23612;50.894;10.700;2023-12-14T11:05:11;28.05;;;12.10;;
20527;SDS011;23612;50.894;10.700;2023-12-14T11:07:48;9.63;;;7.93;;
20527;SDS011;23612;50.894;10.700;2023-12-14T11:10:23;6.60;;;5.13;;
20527;SDS011;23612;50.894;10.700;2023-12-14T11:12:56;8.52;;;6.10;;
20527;SDS011;23612;50.894;10.700;2023-12-14T11:15:25;9.80;;;7.00;;
20527;SDS011;23612;50.894;10.700;2023-12-14T11:23:10;7.72;;;5.57;;
20527;SDS011;23612;50.894;10.700;2023-12-14T11:26:03;6.40;;;5.72;;
20527;SDS011;23612;50.894;10.700;2023-12-14T11:28:34;9.95;;;5.93;;
20527;SDS011;23612;50.894;10.700;2023-12-14T11:31:09;7.57;;;5.32;;
20527;SDS011;23612;50.894;10.700;2023-12-14T11:33:35;9.48;;;6.25;;
20527;SDS011;23612;50.894;10.700;2023-12-14T11:36:02;12.10;;;7.88;;
20527;SDS011;23612;50.894;10.700;2023-12-14T11:38:31;17.98;;;10.52;;
20527;SDS011;23612;50.894;10.700;2023-12-14T11:40:57;12.13;;;7.90;;
20527;SDS011;23612;50.894;10.700;2023-12-14T11:43:24;9.07;;;6.80;;
20527;SDS011;23612;50.894;10.700;2023-12-14T11:45:51;9.75;;;5.90;;
20527;SDS011;23612;50.894;10.700;2023-12-14T11:48:17;7.18;;;5.35;;
20527;SDS011;23612;50.894;10.700;2023-12-14T11:50:45;8.43;;;5.95;;
20527;SDS011;23612;50.894;10.700;2023-12-14T11:53:11;7.55;;;5.88;;
20527;SDS011;23612;50.894;10.700;2023-12-14T11:55:38;6.68;;;5.75;;
20527;SDS011;23612;50.894;10.700;2023-12-14T11:58:07;9.77;;;6.57;;
20527;SDS011;23612;50.894;10.700;2023-12-14T12:00:34;4.78;;;4.25;;
20527;SDS011;23612;50.894;10.700;2023-12-14T12:03:18;6.03;;;4.93;;
20527;SDS011;23612;50.894;10.700;2023-12-14T12:05:46;4.68;;;4.13;;
20527;SDS011;23612;50.894;10.700;2023-12-14T12:08:13;5.53;;;4.82;;
20527;SDS011;23612;50.894;10.700;2023-12-14T12:10:40;6.38;;;4.90;;
20527;SDS011;23612;50.894;10.700;2023-12-14T12:13:08;7.00;;;4.63;;
20527;SDS011;23612;50.894;10.700;2023-12-14T12:15:37;6.22;;;5.22;;
20527;SDS011;23612;50.894;10.700;2023-12-14T12:18:04;6.75;;;5.40;;
20527;SDS011;23612;50.894;10.700;2023-12-14T12:20:31;6.07;;;5.38;;
20527;SDS011;23612;50.894;10.700;2023-12-14T12:22:57;6.03;;;5.15;;
20527;SDS011;23612;50.894;10.700;2023-12-14T12:25:23;7.25;;;5.82;;
20527;SDS011;23612;50.894;10.700;2023-12-14T12:27:48;8.32;;;6.70;;
20527;SDS011;23612;50.894;10.700;2023-12-14T12:30:14;7.25;;;5.80;;
20527;SDS011;23612;50.894;10.700;2023-12-14T12:32:40;8.40;;;6.43;;
20527;SDS011;23612;50.894;10.700;2023-12-14T12:35:06;7.80;;;6.65;;
20527;SDS011;23612;50.894;10.700;2023-12-14T12:37:32;6.47;;;5.80;;
20527;SDS011;23612;50.894;10.700;2023-12-14T12:39:58;7.70;;;5.70;;
20527;SDS011;23612;50.894;10.700;2023-12-14T12:42:24;8.50;;;6.95;;
20527;SDS011;23612;50.894;10.700;2023-12-14T12:44:50;7.72;;;6.72;;
20527;SDS011;23612;50.894;10.700;2023-12-14T12:47:16;7.00;;;5.30;;
20527;SDS011;23612;50.894;10.700;2023-12-14T12:49:41;6.40;;;5.20;;
20527;SDS011;23612;50.894;10.700;2023-12-14T12:52:07;7.55;;;6.05;;
20527;SDS011;23612;50.894;10.700;2023-12-14T12:54:32;5.30;;;4.63;;
20527;SDS011;23612;50.894;10.700;2023-12-14T12:56:58;5.20;;;4.20;;
20527;SDS011;23612;50.894;10.700;2023-12-14T12:59:23;7.88;;;4.82;;
20527;SDS011;23612;50.894;10.700;2023-12-14T13:01:49;4.50;;;4.10;;
20527;SDS011;23612;50.894;10.700;2023-12-14T13:04:18;5.18;;;4.13;;
20527;SDS011;23612;50.894;10.700;2023-12-14T13:06:45;5.55;;;4.47;;
20527;SDS011;23612;50.894;10.700;2023-12-14T13:09:13;5.53;;;4.93;;
20527;SDS011;23612;50.894;10.700;2023-12-14T13:11:39;7.10;;;5.65;;
20527;SDS011;23612;50.894;10.700;2023-12-14T13:14:05;5.80;;;4.55;;
20527;SDS011;23612;50.894;10.700;2023-12-14T13:16:32;5.63;;;4.40;;
20527;SDS011;23612;50.894;10.700;2023-12-14T13:18:59;4.43;;;3.65;;
20527;SDS011;23612;50.894;10.700;2023-12-14T13:21:24;7.68;;;3.92;;
20527;SDS011;23612;50.894;10.700;2023-12-14T13:23:50;4.57;;;3.80;;
20527;SDS011;23612;50.894;10.700;2023-12-14T13:26:16;5.40;;;4.18;;
20527;SDS011;23612;50.894;10.700;2023-12-14T13:28:41;10.60;;;6.03;;
20527;SDS011;23612;50.894;10.700;2023-12-14T13:31:07;6.72;;;5.10;;
20527;SDS011;23612;50.894;10.700;2023-12-14T13:33:32;9.63;;;5.15;;
20527;SDS011;23612;50.894;10.700;2023-12-14T13:35:58;8.25;;;6.00;;
20527;SDS011;23612;50.894;10.700;2023-12-14T13:38:23;9.98;;;6.25;;
20527;SDS011;23612;50.894;10.700;2023-12-14T13:40:49;10.38;;;6.13;;
20527;SDS011;23612;50.894;10.700;2023-12-14T13:43:15;9.77;;;6.22;;
20527;SDS011;23612;50.894;10.700;2023-12-14T13:45:40;10.00;;;6.28;;
20527;SDS011;23612;50.894;10.700;2023-12-14T13:48:07;9.70;;;6.25;;
20527;SDS011;23612;50.894;10.700;2023-12-14T13:50:32;8.20;;;5.93;;
20527;SDS011;23612;50.894;10.700;2023-12-14T13:52:59;8.35;;;5.75;;
20527;SDS011;23612;50.894;10.700;2023-12-14T13:55:24;10.63;;;6.40;;
20527;SDS011;23612;50.894;10.700;2023-12-14T13:57:50;8.85;;;6.25;;
20527;SDS011;23612;50.894;10.700;2023-12-14T14:00:16;14.85;;;9.25;;
20527;SDS011;23612;50.894;10.700;2023-12-14T14:02:41;12.48;;;8.18;;
20527;SDS011;23612;50.894;10.700;2023-12-14T14:05:07;19.65;;;11.77;;
20527;SDS011;23612;50.894;10.700;2023-12-14T14:07:32;17.45;;;9.95;;
20527;SDS011;23612;50.894;10.700;2023-12-14T14:09:58;20.17;;;10.95;;
20527;SDS011;23612;50.894;10.700;2023-12-14T14:12:23;11.23;;;7.63;;
20527;SDS011;23612;50.894;10.700;2023-12-14T14:14:49;16.00;;;9.27;;
20527;SDS011;23612;50.894;10.700;2023-12-14T14:17:14;13.25;;;8.80;;
20527;SDS011;23612;50.894;10.700;2023-12-14T14:19:40;11.20;;;7.60;;
20527;SDS011;23612;50.894;10.700;2023-12-14T14:22:05;15.88;;;9.50;;